createdAt,value
2018-01-19T00:00:45.690Z,90.00
2018-01-19T00:03:14.527Z,90.10
2018-01-19T00:05:42.639Z,90.10
2018-01-19T00:08:10.667Z,88.00
2018-01-19T00:10:38.713Z,89.40
2018-01-19T00:13:06.788Z,88.70
2018-01-19T00:15:34.852Z,89.00
2018-01-19T00:18:02.914Z,89.40
2018-01-19T00:20:30.978Z,88.80
2018-01-19T00:22:59.046Z,89.30
2018-01-19T00:25:27.116Z,88.00
2018-01-19T00:27:55.178Z,87.90
2018-01-19T00:30:24.019Z,88.80
2018-01-19T00:32:52.080Z,88.80
2018-01-19T00:35:20.146Z,88.00
2018-01-19T00:37:48.212Z,88.60
2018-01-19T00:40:16.293Z,88.50
2018-01-19T00:42:44.346Z,88.90
2018-01-19T00:45:12.410Z,88.40
2018-01-19T00:47:40.515Z,88.60
2018-01-19T00:50:08.579Z,87.00
2018-01-19T00:52:36.646Z,87.50
2018-01-19T00:55:04.746Z,88.80
2018-01-19T00:57:55.742Z,86.90
2018-01-19T01:00:23.802Z,88.10
2018-01-19T01:02:51.865Z,85.80
2018-01-19T01:05:19.934Z,86.60
2018-01-19T01:07:48.000Z,88.00
2018-01-19T01:10:16.063Z,87.10
2018-01-19T01:12:44.120Z,88.10
2018-01-19T01:15:12.180Z,88.20
2018-01-19T01:17:40.245Z,87.60
2018-01-19T01:20:09.065Z,88.80
2018-01-19T01:22:37.138Z,88.80
2018-01-19T01:25:05.215Z,89.70
2018-01-19T01:27:33.296Z,90.10
2018-01-19T01:30:01.358Z,90.10
2018-01-19T01:32:29.422Z,89.20
2018-01-19T01:34:57.480Z,88.80
2018-01-19T01:37:25.549Z,89.10
2018-01-19T01:39:53.597Z,89.60
2018-01-19T01:42:21.661Z,88.80
2018-01-19T01:44:50.493Z,89.70
2018-01-19T01:47:18.549Z,89.60
2018-01-19T01:49:46.622Z,89.20
2018-01-19T01:52:14.677Z,88.90
2018-01-19T01:54:42.737Z,89.00
2018-01-19T01:57:11.570Z,89.40
2018-01-19T01:59:39.632Z,89.40
2018-01-19T02:02:07.702Z,89.00
2018-01-19T02:04:35.762Z,89.90
2018-01-19T02:07:03.832Z,89.90
2018-01-19T02:09:31.889Z,89.00
2018-01-19T02:11:59.937Z,89.10
2018-01-19T02:14:28.787Z,88.40
2018-01-19T02:16:56.843Z,88.40
2018-01-19T02:19:24.924Z,87.90
2018-01-19T02:21:53.029Z,88.50
2018-01-19T02:24:21.089Z,86.70
2018-01-19T02:26:49.150Z,87.10
2018-01-19T02:29:17.228Z,88.80
2018-01-19T02:31:45.298Z,88.10
2018-01-19T02:34:13.362Z,88.30
2018-01-19T02:36:41.417Z,87.90
2018-01-19T02:39:09.490Z,87.90
2018-01-19T02:41:37.554Z,88.30
2018-01-19T02:44:05.612Z,89.00
2018-01-19T02:46:33.673Z,88.10
2018-01-19T02:49:01.754Z,87.30
2018-01-19T02:51:29.803Z,86.50
2018-01-19T02:53:57.878Z,87.30
2018-01-19T02:56:25.953Z,87.50
2018-01-19T02:58:54.011Z,87.70
2018-01-19T03:01:22.079Z,88.00
2018-01-19T03:03:50.900Z,88.10
2018-01-19T03:06:18.973Z,88.10
2018-01-19T03:08:47.026Z,88.60
2018-01-19T03:11:15.085Z,87.70
2018-01-19T03:13:43.206Z,87.70
2018-01-19T03:16:11.280Z,87.30
2018-01-19T03:18:39.326Z,88.20
2018-01-19T03:21:07.394Z,88.60
2018-01-19T03:23:35.453Z,89.10
2018-01-19T03:26:03.518Z,88.10
2018-01-19T03:28:31.579Z,87.80
2018-01-19T03:30:59.652Z,87.30
2018-01-19T03:33:27.709Z,86.80
2018-01-19T03:35:55.786Z,87.00
2018-01-19T03:38:23.825Z,88.20
2018-01-19T03:40:52.654Z,89.40
2018-01-19T03:43:20.770Z,89.40
2018-01-19T03:45:48.833Z,89.10
2018-01-19T03:48:16.918Z,89.90
2018-01-19T03:50:44.964Z,89.80
2018-01-19T03:53:13.037Z,89.40
2018-01-19T03:55:41.087Z,89.30
2018-01-19T03:58:09.145Z,88.70
2018-01-19T04:00:37.206Z,88.10
2018-01-19T04:03:05.268Z,88.50
2018-01-19T04:05:33.321Z,87.40
2018-01-19T04:08:02.156Z,87.70
2018-01-19T04:10:30.210Z,87.70
2018-01-19T04:12:58.278Z,87.30
2018-01-19T04:15:26.371Z,87.60
2018-01-19T04:17:54.446Z,87.70
2018-01-19T04:20:22.500Z,88.10
2018-01-19T04:22:50.571Z,87.80
2018-01-19T04:25:18.626Z,87.80
2018-01-19T04:27:46.686Z,88.20
2018-01-19T04:30:15.518Z,88.50
2018-01-19T04:32:43.574Z,88.50
2018-01-19T04:35:12.579Z,88.10
2018-01-19T04:37:40.640Z,87.50
2018-01-19T04:40:08.716Z,86.50
2018-01-19T04:42:36.775Z,87.20
2018-01-19T04:45:04.833Z,87.90
2018-01-19T04:47:32.890Z,87.80
2018-01-19T04:50:01.728Z,87.70
2018-01-19T04:52:29.782Z,87.70
2018-01-19T04:54:57.894Z,87.30
2018-01-19T04:57:25.899Z,87.40
2018-01-19T04:59:53.965Z,87.10
2018-01-19T05:02:22.035Z,87.90
2018-01-19T05:04:50.096Z,88.00
2018-01-19T05:07:18.923Z,87.50
2018-01-19T05:09:46.989Z,87.50
2018-01-19T05:12:15.050Z,85.90
2018-01-19T05:14:43.110Z,85.50
2018-01-19T05:17:11.166Z,85.60
2018-01-19T05:19:39.994Z,86.00
2018-01-19T05:22:08.067Z,86.00
2018-01-19T05:24:36.131Z,85.00
2018-01-19T05:27:04.193Z,86.10
2018-01-19T05:29:32.246Z,85.90
2018-01-19T05:32:00.302Z,86.10
2018-01-19T05:34:29.129Z,86.20
2018-01-19T05:36:57.195Z,86.20
2018-01-19T05:39:25.247Z,86.30
2018-01-19T05:41:53.304Z,86.20
2018-01-19T05:44:22.125Z,86.30
2018-01-19T05:46:50.187Z,86.30
2018-01-19T05:49:18.237Z,86.30
2018-01-19T05:51:46.319Z,85.30
2018-01-19T05:54:14.390Z,84.70
2018-01-19T05:56:42.454Z,86.30
2018-01-19T05:59:10.520Z,86.10
2018-01-19T06:01:39.346Z,85.80
2018-01-19T06:04:07.410Z,85.80
2018-01-19T06:06:35.469Z,85.20
2018-01-19T06:09:03.527Z,85.80
2018-01-19T06:11:31.586Z,86.00
2018-01-19T06:13:59.655Z,86.50
2018-01-19T06:16:28.482Z,85.80
2018-01-19T06:18:56.541Z,85.80
2018-01-19T06:21:24.597Z,86.00
2018-01-19T06:23:52.662Z,85.60
2018-01-19T06:26:20.717Z,86.10
2018-01-19T06:28:49.555Z,86.00
2018-01-19T06:31:17.622Z,86.00
2018-01-19T06:33:45.696Z,86.00
2018-01-19T06:36:13.745Z,85.60
2018-01-19T06:38:42.597Z,85.00
2018-01-19T06:41:11.422Z,85.50
2018-01-19T06:43:39.497Z,85.50
2018-01-19T06:46:07.558Z,85.70
2018-01-19T06:48:35.613Z,86.60
2018-01-19T06:51:03.680Z,86.70
2018-01-19T06:53:32.508Z,86.90
2018-01-19T06:56:00.573Z,86.90
2018-01-19T06:58:28.639Z,86.20
2018-01-19T07:00:56.706Z,85.90
2018-01-19T07:03:24.783Z,85.30
2018-01-19T07:05:52.828Z,86.70
2018-01-19T07:08:20.885Z,86.60
2018-01-19T07:10:49.709Z,86.10
2018-01-19T07:13:17.776Z,86.10
2018-01-19T07:15:45.847Z,86.90
2018-01-19T07:18:13.907Z,86.60
2018-01-19T07:20:41.994Z,87.30
2018-01-19T07:23:10.055Z,87.70
2018-01-19T07:25:38.125Z,87.40
2018-01-19T07:28:06.185Z,86.50
2018-01-19T07:30:34.242Z,86.50
2018-01-19T07:33:03.066Z,86.10
2018-01-19T07:35:31.150Z,86.10
2018-01-19T07:37:59.218Z,86.90
2018-01-19T07:40:27.674Z,87.90
2018-01-19T07:42:55.744Z,87.40
2018-01-19T07:45:23.808Z,87.00
2018-01-19T07:47:51.864Z,85.60
2018-01-19T07:50:20.702Z,85.00
2018-01-19T07:52:48.762Z,84.80
2018-01-19T07:55:16.828Z,84.80
2018-01-19T07:57:44.891Z,84.00
2018-01-19T08:00:12.955Z,83.90
2018-01-19T08:02:41.026Z,85.10
2018-01-19T08:05:09.095Z,84.40
2018-01-19T08:07:37.169Z,86.00
2018-01-19T08:10:05.222Z,87.10
2018-01-19T08:12:33.294Z,86.50
2018-01-19T08:15:01.427Z,87.60
2018-01-19T08:17:29.484Z,87.30
2018-01-19T08:19:57.559Z,85.70
2018-01-19T08:22:25.630Z,86.00
2018-01-19T08:24:53.685Z,86.20
2018-01-19T08:27:21.759Z,85.90
2018-01-19T08:29:49.837Z,85.20
2018-01-19T08:32:17.897Z,85.40
2018-01-19T08:34:45.962Z,85.40
2018-01-19T08:37:14.020Z,85.00
2018-01-19T08:39:42.090Z,84.80
2018-01-19T08:42:10.151Z,84.50
2018-01-19T08:44:38.218Z,84.70
2018-01-19T08:47:06.277Z,84.20
2018-01-19T08:49:34.345Z,84.00
2018-01-19T08:52:02.414Z,84.00
2018-01-19T08:54:31.264Z,84.20
2018-01-19T08:56:59.316Z,84.20
2018-01-19T08:59:27.386Z,84.20
2018-01-19T09:01:55.449Z,84.10
2018-01-19T09:04:23.509Z,83.90
2018-01-19T09:06:51.592Z,86.30
2018-01-19T09:09:19.655Z,85.90
2018-01-19T09:11:47.729Z,85.60
2018-01-19T09:14:15.785Z,86.10
2018-01-19T09:16:43.851Z,85.40
2018-01-19T09:19:11.924Z,84.80
2018-01-19T09:21:39.989Z,85.90
2018-01-19T09:24:08.050Z,85.60
2018-01-19T09:26:36.131Z,85.00
2018-01-19T09:29:04.203Z,84.20
2018-01-19T09:31:32.271Z,84.10
2018-01-19T09:34:00.442Z,84.10
2018-01-19T09:36:28.519Z,84.20
2018-01-19T09:38:56.571Z,84.30
2018-01-19T09:41:25.075Z,82.40
2018-01-19T09:43:53.143Z,82.70
2018-01-19T09:46:21.218Z,82.80
2018-01-19T09:48:49.288Z,84.20
2018-01-19T09:51:17.354Z,84.10
2018-01-19T09:53:45.414Z,84.30
2018-01-19T09:56:13.474Z,83.40
2018-01-19T09:58:42.351Z,84.20
2018-01-19T10:01:11.178Z,83.20
2018-01-19T10:03:39.247Z,83.20
2018-01-19T10:06:07.312Z,82.70
2018-01-19T10:08:35.371Z,82.20
2018-01-19T10:11:03.444Z,81.80
2018-01-19T10:13:31.562Z,81.50
2018-01-19T10:15:59.592Z,79.60
2018-01-19T10:18:27.667Z,78.90
2018-01-19T10:20:55.739Z,77.80
2018-01-19T10:23:23.819Z,78.80
2018-01-19T10:25:51.882Z,75.50
2018-01-19T10:28:19.947Z,74.70
2018-01-19T10:30:48.008Z,75.00
2018-01-19T10:33:16.069Z,75.50
2018-01-19T10:35:44.156Z,75.30
2018-01-19T10:38:12.235Z,77.70
2018-01-19T10:40:40.307Z,75.30
2018-01-19T10:43:08.382Z,77.20
2018-01-19T10:45:36.446Z,76.20
2018-01-19T10:48:04.521Z,75.40
2018-01-19T10:50:32.610Z,75.70
2018-01-19T10:53:00.686Z,75.30
2018-01-19T10:55:28.761Z,75.30
2018-01-19T10:57:56.819Z,74.90
2018-01-19T11:00:24.893Z,75.30
2018-01-19T11:02:52.969Z,75.20
2018-01-19T11:05:21.047Z,75.60
2018-01-19T11:07:49.115Z,75.40
2018-01-19T11:10:17.185Z,75.30
2018-01-19T11:12:45.255Z,75.20
2018-01-19T11:15:13.326Z,75.80
2018-01-19T11:17:41.398Z,75.20
2018-01-19T11:20:09.491Z,75.30
2018-01-19T11:22:38.333Z,74.40
2018-01-19T11:25:06.407Z,75.40
2018-01-19T11:27:34.473Z,74.00
2018-01-19T11:30:02.551Z,75.20
2018-01-19T11:32:30.622Z,75.20
2018-01-19T11:34:58.695Z,75.50
2018-01-19T11:37:26.763Z,76.60
2018-01-19T11:39:54.882Z,76.30
2018-01-19T11:42:23.733Z,78.90
2018-01-19T11:44:51.797Z,78.90
2018-01-19T11:47:19.859Z,78.30
2018-01-19T11:49:47.933Z,77.30
2018-01-19T11:52:16.002Z,77.30
2018-01-19T11:54:44.079Z,77.50
2018-01-19T11:57:12.155Z,78.40
2018-01-19T11:59:40.223Z,78.90
2018-01-19T12:02:08.300Z,79.40
2018-01-19T12:04:36.370Z,78.80
2018-01-19T12:07:04.437Z,78.50
2018-01-19T12:09:32.528Z,78.50
2018-01-19T12:12:00.611Z,78.30
2018-01-19T12:14:29.464Z,78.30
2018-01-19T12:16:57.534Z,78.30
2018-01-19T12:19:25.619Z,78.60
2018-01-19T12:21:53.691Z,77.50
2018-01-19T12:24:21.765Z,77.30
2018-01-19T12:26:49.831Z,76.70
2018-01-19T12:29:17.902Z,77.00
2018-01-19T12:31:45.989Z,78.10
2018-01-19T12:34:14.822Z,76.50
2018-01-19T12:36:42.899Z,76.50
2018-01-19T12:39:10.963Z,76.00
2018-01-19T12:41:39.037Z,77.00
2018-01-19T12:44:07.110Z,76.80
2018-01-19T12:46:35.215Z,76.10
2018-01-19T12:49:03.273Z,76.30
2018-01-19T12:51:31.365Z,75.30
2018-01-19T12:53:59.488Z,75.70
2018-01-19T12:56:27.549Z,76.40
2018-01-19T12:58:55.627Z,76.90
2018-01-19T13:01:23.698Z,76.60
2018-01-19T13:03:51.770Z,76.00
2018-01-19T13:06:19.837Z,77.00
2018-01-19T13:08:47.900Z,78.30
2018-01-19T13:11:15.976Z,78.30
2018-01-19T13:13:44.059Z,78.10
2018-01-19T13:16:12.117Z,77.50
2018-01-19T13:18:40.244Z,78.20
2018-01-19T13:21:08.317Z,78.20
2018-01-19T13:23:36.383Z,79.70
2018-01-19T13:26:04.442Z,80.70
2018-01-19T13:28:32.509Z,82.30
2018-01-19T13:31:00.578Z,86.70
2018-01-19T13:33:28.645Z,89.10
2018-01-19T13:35:56.709Z,88.00
2018-01-19T13:38:24.778Z,90.00
2018-01-19T13:40:52.845Z,90.00
2018-01-19T13:43:20.906Z,90.20
2018-01-19T13:45:48.996Z,90.10
2018-01-19T13:48:17.062Z,90.80
2018-01-19T13:50:45.133Z,90.80
2018-01-19T13:53:13.218Z,90.70
2018-01-19T13:55:41.295Z,90.60
2018-01-19T13:58:09.366Z,90.70
2018-01-19T14:00:37.443Z,90.70
2018-01-19T14:03:05.497Z,90.70
2018-01-19T14:05:33.622Z,90.10
2018-01-19T14:08:01.694Z,89.30
2018-01-19T14:10:29.760Z,89.10
2018-01-19T14:12:57.818Z,88.40
2018-01-19T14:15:26.651Z,87.60
2018-01-19T14:17:54.721Z,87.60
2018-01-19T14:20:22.795Z,87.30
2018-01-19T14:22:50.866Z,87.90
2018-01-19T14:25:18.939Z,87.50
2018-01-19T14:27:47.013Z,88.30
2018-01-19T14:30:15.987Z,88.20
2018-01-19T14:32:44.105Z,87.30
2018-01-19T14:35:12.130Z,89.10
2018-01-19T14:37:40.188Z,88.90
2018-01-19T14:40:08.263Z,87.50
2018-01-19T14:42:36.375Z,87.50
2018-01-19T14:45:04.450Z,87.10
2018-01-19T14:47:32.534Z,86.80
2018-01-19T14:50:01.363Z,86.90
2018-01-19T14:52:29.446Z,86.80
2018-01-19T14:54:57.514Z,87.50
2018-01-19T14:57:25.586Z,87.60
2018-01-19T14:59:53.651Z,88.20
2018-01-19T15:02:21.718Z,87.60
2018-01-19T15:04:49.791Z,87.90
2018-01-19T15:07:17.867Z,87.90
2018-01-19T15:09:45.935Z,87.30
2018-01-19T15:12:14.025Z,87.00
2018-01-19T15:14:42.107Z,86.70
2018-01-19T15:17:10.195Z,87.50
2018-01-19T15:19:38.256Z,87.10
2018-01-19T15:22:06.322Z,87.20
2018-01-19T15:24:34.394Z,86.30
2018-01-19T15:27:02.451Z,85.80
2018-01-19T15:29:30.522Z,87.10
2018-01-19T15:31:58.590Z,88.10
2018-01-19T15:34:26.669Z,87.70
2018-01-19T15:36:54.805Z,87.70
2018-01-19T15:39:22.907Z,86.80
2018-01-19T15:41:50.977Z,87.70
2018-01-19T15:44:19.055Z,87.00
2018-01-19T15:46:47.222Z,87.10
2018-01-19T15:49:15.282Z,86.50
2018-01-19T15:51:43.353Z,86.60
2018-01-19T15:54:11.430Z,85.70
2018-01-19T15:56:39.677Z,86.10
2018-01-19T15:59:07.746Z,85.60
2018-01-19T16:01:35.823Z,85.10
2018-01-19T16:04:03.879Z,84.90
2018-01-19T16:06:31.950Z,85.50
2018-01-19T16:09:00.019Z,85.40
2018-01-19T16:11:28.104Z,86.80
2018-01-19T16:13:56.179Z,86.70
2018-01-19T16:16:24.260Z,86.80
2018-01-19T16:18:52.318Z,87.10
2018-01-19T16:21:20.393Z,86.10
2018-01-19T16:23:48.470Z,86.90
2018-01-19T16:26:16.538Z,87.00
2018-01-19T16:28:44.609Z,87.10
2018-01-19T16:31:12.677Z,86.70
2018-01-19T16:33:40.749Z,86.70
2018-01-19T16:36:08.834Z,86.50
2018-01-19T16:38:36.903Z,84.30
2018-01-19T16:41:04.966Z,84.70
2018-01-19T16:43:33.025Z,86.20
2018-01-19T16:46:01.100Z,85.30
2018-01-19T16:48:29.171Z,85.20
2018-01-19T16:50:57.233Z,84.10
2018-01-19T16:53:25.327Z,84.00
2018-01-19T16:55:53.377Z,85.90
2018-01-19T16:58:21.466Z,87.10
2018-01-19T17:00:49.539Z,87.30
2018-01-19T17:03:17.614Z,89.90
2018-01-19T17:05:45.671Z,89.10
2018-01-19T17:08:13.757Z,90.50
2018-01-19T17:10:42.714Z,87.80
2018-01-19T17:13:10.775Z,88.80
2018-01-19T17:15:38.843Z,88.90
2018-01-19T17:18:06.921Z,90.10
2018-01-19T17:20:34.974Z,90.10
2018-01-19T17:23:03.046Z,89.90
2018-01-19T17:25:31.111Z,89.20
2018-01-19T17:27:59.173Z,89.90
2018-01-19T17:30:28.027Z,89.80
2018-01-19T17:32:56.085Z,89.80
2018-01-19T17:35:24.159Z,88.10
2018-01-19T17:37:52.259Z,86.70
2018-01-19T17:40:20.339Z,86.40
2018-01-19T17:42:49.181Z,88.30
2018-01-19T17:45:17.257Z,88.30
2018-01-19T17:47:45.317Z,87.60
2018-01-19T17:50:13.381Z,87.90
2018-01-19T17:52:41.446Z,88.40
2018-01-19T17:55:09.524Z,89.20
2018-01-19T17:57:37.622Z,88.30
2018-01-19T18:00:05.691Z,89.70
2018-01-19T18:02:33.758Z,90.70
2018-01-19T18:05:01.835Z,91.50
2018-01-19T18:07:29.890Z,91.80
2018-01-19T18:09:57.962Z,91.60
2018-01-19T18:12:26.027Z,91.50
2018-01-19T18:14:54.102Z,91.60
2018-01-19T18:17:22.162Z,91.90
2018-01-19T18:19:50.238Z,92.20
2018-01-19T18:22:18.298Z,92.70
2018-01-19T18:24:46.362Z,93.30
2018-01-19T18:27:14.430Z,93.80
2018-01-19T18:29:42.534Z,93.70
2018-01-19T18:32:10.612Z,94.00
2018-01-19T18:34:38.678Z,94.00
2018-01-19T18:37:06.741Z,94.10
2018-01-19T18:39:34.818Z,94.00
2018-01-19T18:42:02.881Z,94.10
2018-01-19T18:44:30.947Z,93.30
2018-01-19T18:46:59.011Z,92.50
2018-01-19T18:49:27.071Z,92.80
2018-01-19T18:51:55.150Z,93.00
2018-01-19T18:54:23.215Z,93.60
2018-01-19T18:56:51.280Z,93.90
2018-01-19T18:59:19.343Z,93.90
2018-01-19T19:01:47.405Z,93.90
2018-01-19T19:04:15.492Z,93.90
2018-01-19T19:06:43.551Z,93.90
2018-01-19T19:09:11.609Z,93.90
2018-01-19T19:11:39.683Z,93.90
2018-01-19T19:14:07.747Z,93.80
2018-01-19T19:16:35.815Z,93.90
2018-01-19T19:19:04.651Z,93.70
2018-01-19T19:21:32.714Z,93.70
2018-01-19T19:24:00.782Z,93.60
2018-01-19T19:26:28.850Z,93.90
2018-01-19T19:28:56.932Z,93.40
2018-01-19T19:31:24.998Z,93.50
2018-01-19T19:33:53.073Z,93.00
2018-01-19T19:36:21.220Z,92.90
2018-01-19T19:38:49.295Z,93.10
2018-01-19T19:41:17.366Z,92.50
2018-01-19T19:43:45.435Z,93.00
2018-01-19T19:46:13.510Z,93.10
2018-01-19T19:48:42.315Z,92.90
2018-01-19T19:51:10.390Z,92.70
2018-01-19T19:53:38.454Z,92.60
2018-01-19T19:56:06.584Z,92.70
2018-01-19T19:58:34.654Z,92.70
2018-01-19T20:01:02.720Z,92.80
2018-01-19T20:03:31.551Z,92.80
2018-01-19T20:05:59.638Z,92.80
2018-01-19T20:08:27.755Z,93.10
2018-01-19T20:10:56.585Z,92.60
2018-01-19T20:13:25.474Z,92.60
2018-01-19T20:15:53.545Z,93.00
2018-01-19T20:18:21.610Z,92.80
2018-01-19T20:20:49.689Z,92.80
2018-01-19T20:23:17.769Z,92.80
2018-01-19T20:25:45.846Z,92.70
2018-01-19T20:28:13.924Z,92.60
2018-01-19T20:30:41.998Z,92.70
2018-01-19T20:33:10.064Z,92.90
2018-01-19T20:35:38.148Z,93.00
2018-01-19T20:38:06.205Z,92.60
2018-01-19T20:40:34.277Z,92.90
2018-01-19T20:43:02.371Z,93.00
2018-01-19T20:45:31.197Z,93.20
2018-01-19T20:47:59.275Z,93.20
2018-01-19T20:50:27.346Z,93.40
2018-01-19T20:52:55.417Z,92.90
2018-01-19T20:55:23.478Z,92.80
2018-01-19T20:57:51.546Z,93.00
2018-01-19T21:00:19.632Z,93.40
2018-01-19T21:02:47.714Z,93.40
2018-01-19T21:05:15.787Z,93.40
2018-01-19T21:07:43.876Z,93.40
2018-01-19T21:10:11.941Z,93.30
2018-01-19T21:12:40.100Z,93.30
2018-01-19T21:15:08.163Z,93.30
2018-01-19T21:17:36.295Z,93.00
2018-01-19T21:20:04.694Z,92.80
2018-01-19T21:22:32.767Z,92.50
2018-01-19T21:25:00.830Z,92.80
2018-01-19T21:27:28.890Z,92.60
2018-01-19T21:29:56.979Z,92.70
2018-01-19T21:32:25.089Z,92.80
2018-01-19T21:34:53.158Z,92.60
2018-01-19T21:37:21.231Z,92.20
2018-01-19T21:39:49.302Z,92.00
2018-01-19T21:42:17.371Z,92.60
2018-01-19T21:44:45.443Z,92.40
2018-01-19T21:47:13.505Z,92.30
2018-01-19T21:49:41.606Z,92.00
2018-01-19T21:52:10.443Z,92.50
2018-01-19T21:54:38.519Z,92.40
2018-01-19T21:57:06.594Z,92.30
2018-01-19T21:59:34.662Z,92.40
2018-01-19T22:02:02.729Z,91.90
2018-01-19T22:04:30.801Z,92.40
2018-01-19T22:06:58.861Z,92.20
2018-01-19T22:09:26.931Z,92.00
2018-01-19T22:11:54.994Z,91.50
2018-01-19T22:14:23.077Z,92.00
2018-01-19T22:16:51.150Z,92.00
2018-01-19T22:19:19.217Z,92.00
2018-01-19T22:21:47.289Z,92.00
2018-01-19T22:24:15.359Z,92.00
2018-01-19T22:26:43.430Z,91.70
2018-01-19T22:29:11.499Z,91.80
2018-01-19T22:31:39.565Z,91.80
2018-01-19T22:34:07.637Z,91.80
2018-01-19T22:36:35.719Z,92.30
2018-01-19T22:39:03.781Z,92.10
2018-01-19T22:41:31.854Z,92.10
2018-01-19T22:43:59.926Z,91.80
2018-01-19T22:46:28.000Z,92.00
2018-01-19T22:48:56.071Z,92.10
2018-01-19T22:51:24.145Z,92.10
2018-01-19T22:53:52.218Z,92.20
2018-01-19T22:56:20.294Z,92.10
2018-01-19T22:58:48.359Z,92.30
2018-01-19T23:01:16.426Z,92.30
2018-01-19T23:03:44.519Z,92.40
2018-01-19T23:06:12.595Z,92.60
2018-01-19T23:08:40.665Z,92.70
2018-01-19T23:11:09.502Z,92.70
2018-01-19T23:13:37.598Z,92.70
2018-01-19T23:16:05.668Z,93.00
2018-01-19T23:18:33.734Z,93.00
2018-01-19T23:21:01.843Z,93.20
2018-01-19T23:23:30.682Z,93.30
2018-01-19T23:25:58.739Z,93.20
2018-01-19T23:28:26.825Z,93.40
2018-01-19T23:30:54.899Z,92.90
2018-01-19T23:33:22.955Z,92.90
2018-01-19T23:35:51.031Z,92.70
2018-01-19T23:38:19.103Z,92.70
2018-01-19T23:40:47.179Z,92.70
2018-01-19T23:43:15.250Z,92.30
2018-01-19T23:45:43.333Z,92.40
2018-01-19T23:48:11.412Z,92.00
2018-01-19T23:50:39.476Z,92.20
2018-01-19T23:53:07.542Z,92.30
2018-01-19T23:55:35.630Z,92.00
2018-01-19T23:58:03.686Z,92.00
